LIPR/RMI METAR and TAF weather

Enter ICAO airport designator
Station Type Date Time Source
LIPR METAR 2021/03/07 08:50 UTC NOAA

LIPR 070850Z 31005KT 290V350 CAVOK 07/M03 Q1027


Station Type Date Time Source
LIPR Decoded METAR 2021/03/07 08:50 UTC NOAA

Rimini, Italy (LIPR) 44-02N 012-37E 13M
Mar 07, 2021 - 03:50 AM EST / 2021.03.07 0850 UTC
Wind: from the NW (310 degrees) at 6 MPH (5 KT) (direction variable):0
Visibility: greater than 7 mile(s):0
Temperature: 44 F (7 C)
Dew Point: 26 F (-3 C)
Relative Humidity: 48%
Pressure (altimeter): 30.33 in. Hg (1027 hPa)
ob: LIPR 070850Z 31005KT 290V350 CAVOK 07/M03 Q1027
cycle: 9

Station Type Date Time Source
LIPR TAF 2016/08/23 03:00 UTC NOAA

TAF LIPR 230200Z 2303/2312 04007KT CAVOK
BECMG 2308/2310 02010KT

Example: see airport list